Time;durP1;ratioP1;P1;durP2;ratioP2;P2;SDS_P1;SDS_P2;PMS_P1;PMS_P2;Temp;Humidity;BMP_temperature;BMP_pressure;BME280_temperature;BME280_humidity;BME280_pressure;Samples;Min_cycle;Max_cycle;Signal;HPM_P1;HPM_P2
2021/12/12 00:00:12;;;;;;;20.25;12.43;;;7.10;99.90;;;;;;5015881;28;20052;-79
2021/12/12 00:02:59;;;;;;;24.03;13.27;;;7.10;99.90;;;;;;5023689;28;20033;-79
2021/12/12 00:05:38;;;;;;;23.92;13.75;;;7.10;99.90;;;;;;5032795;28;20291;-79
2021/12/12 00:08:06;;;;;;;23.02;12.57;;;7.00;99.90;;;;;;5033744;28;20033;-78
2021/12/12 00:10:35;;;;;;;23.80;13.82;;;7.00;99.90;;;;;;5033511;28;20065;-78
2021/12/12 00:13:08;;;;;;;26.67;14.68;;;7.00;99.90;;;;;;5016406;28;20080;-79
2021/12/12 00:15:33;;;;;;;22.48;12.98;;;7.00;99.90;;;;;;5015576;28;20099;-79
2021/12/12 00:18:00;;;;;;;18.13;11.65;;;7.00;99.90;;;;;;5033620;28;20072;-78
2021/12/12 00:20:28;;;;;;;22.42;12.98;;;7.00;99.90;;;;;;5032457;28;20041;-79
2021/12/12 00:22:59;;;;;;;22.02;12.60;;;7.00;99.90;;;;;;5032166;28;20476;-78
2021/12/12 00:25:30;;;;;;;20.83;12.68;;;7.00;99.90;;;;;;5031995;28;20046;-78
2021/12/12 00:27:56;;;;;;;21.58;12.55;;;7.00;99.90;;;;;;5033209;28;20034;-79
2021/12/12 00:30:22;;;;;;;26.17;14.02;;;7.10;99.90;;;;;;5031899;28;20186;-79
2021/12/12 00:32:50;;;;;;;23.58;12.45;;;7.10;99.90;;;;;;5015644;28;20475;-78
2021/12/12 00:35:17;;;;;;;21.52;12.65;;;7.10;99.90;;;;;;5033472;28;20116;-78
2021/12/12 00:37:44;;;;;;;24.38;13.43;;;7.10;99.90;;;;;;5032044;28;20049;-80
2021/12/12 00:40:15;;;;;;;20.27;12.70;;;7.10;99.90;;;;;;5033420;28;20112;-80
2021/12/12 00:42:41;;;;;;;21.48;12.63;;;7.10;99.90;;;;;;5034113;28;20047;-80
2021/12/12 00:45:10;;;;;;;21.17;13.23;;;7.10;99.90;;;;;;5037170;28;20120;-79
2021/12/12 00:47:37;;;;;;;19.25;11.07;;;7.10;99.90;;;;;;5035746;28;20064;-80
2021/12/12 00:50:16;;;;;;;20.83;11.73;;;7.10;99.90;;;;;;5036169;28;20457;-79
2021/12/12 00:52:43;;;;;;;22.52;12.98;;;7.10;99.90;;;;;;5037187;28;20112;-78
2021/12/12 00:55:10;;;;;;;21.23;12.60;;;7.10;99.90;;;;;;5037039;28;20361;-79
2021/12/12 00:57:36;;;;;;;21.75;12.63;;;7.10;99.90;;;;;;5037128;28;20052;-79
2021/12/12 01:00:04;;;;;;;22.08;13.57;;;7.10;99.90;;;;;;5036925;28;20050;-79
2021/12/12 01:02:30;;;;;;;24.10;13.40;;;7.10;99.90;;;;;;5035810;28;20595;-78
2021/12/12 01:04:59;;;;;;;23.38;13.38;;;7.00;99.90;;;;;;5037108;28;20037;-80
2021/12/12 01:07:31;;;;;;;25.23;13.90;;;7.00;99.90;;;;;;5035386;28;20065;-80
2021/12/12 01:10:00;;;;;;;26.48;14.50;;;7.00;99.90;;;;;;5037204;28;20037;-80
2021/12/12 01:12:30;;;;;;;23.77;13.20;;;7.00;99.90;;;;;;5037154;28;20034;-79
2021/12/12 01:15:03;;;;;;;29.80;15.50;;;7.00;99.90;;;;;;5035567;28;20082;-78
2021/12/12 01:17:34;;;;;;;21.25;12.85;;;6.90;99.90;;;;;;5036495;28;20042;-80
2021/12/12 01:20:09;;;;;;;;;;;6.90;99.90;;;;;;5035971;28;20036;-81
2021/12/12 01:22:37;;;;;;;27.63;14.52;;;6.80;99.90;;;;;;5036345;28;19905;-80
2021/12/12 01:25:27;;;;;;;26.88;14.82;;;6.90;99.90;;;;;;5036452;28;20041;-80
2021/12/12 01:27:53;;;;;;;25.60;14.43;;;6.80;99.90;;;;;;5035436;28;20091;-77
2021/12/12 01:30:21;;;;;;;26.65;15.60;;;6.80;99.90;;;;;;5036298;28;20033;-79
2021/12/12 01:32:48;;;;;;;24.45;14.60;;;6.80;99.90;;;;;;5029303;28;20057;-79
2021/12/12 01:35:17;;;;;;;27.45;14.80;;;6.80;99.90;;;;;;5018587;28;20045;-79
2021/12/12 01:40:42;;;;;;;27.80;16.85;;;6.80;99.90;;;;;;4995521;28;20125;-78
2021/12/12 01:43:19;;;;;;;29.73;17.35;;;6.70;99.90;;;;;;5036110;28;20480;-78
2021/12/12 01:45:47;;;;;;;34.78;19.33;;;6.80;99.90;;;;;;5036571;28;20456;-78
2021/12/12 01:48:22;;;;;;;32.35;17.02;;;6.70;99.90;;;;;;5036204;28;20041;-78
2021/12/12 01:50:57;;;;;;;24.00;14.38;;;6.70;99.90;;;;;;5035966;28;20030;-78
2021/12/12 01:53:30;;;;;;;29.77;16.48;;;6.60;99.90;;;;;;5018431;28;20418;-79
2021/12/12 01:56:11;;;;;;;26.75;15.27;;;6.60;99.90;;;;;;5035656;28;20092;-78
2021/12/12 01:58:38;;;;;;;;;;;6.60;99.90;;;;;;5035153;28;20088;-79
2021/12/12 02:01:15;;;;;;;26.90;13.85;;;6.50;99.90;;;;;;5018264;28;19917;-78
2021/12/12 02:03:46;;;;;;;27.88;14.82;;;6.50;99.90;;;;;;5035966;28;20038;-79
2021/12/12 02:06:15;;;;;;;27.10;15.10;;;6.50;99.90;;;;;;5018544;28;20105;-79
2021/12/12 02:08:42;;;;;;;26.35;14.43;;;6.50;99.90;;;;;;5042059;28;20033;-79
2021/12/12 02:11:13;;;;;;;21.70;11.63;;;6.50;99.90;;;;;;5055846;28;20475;-78
2021/12/12 02:13:43;;;;;;;24.42;13.18;;;6.50;99.90;;;;;;5056206;28;20025;-78
2021/12/12 02:16:10;;;;;;;22.02;12.68;;;6.50;99.90;;;;;;5048336;28;20068;-79
2021/12/12 02:18:39;;;;;;;25.35;14.07;;;6.50;99.90;;;;;;5018521;28;20045;-79
2021/12/12 02:21:17;;;;;;;28.80;15.38;;;6.50;99.90;;;;;;5034342;28;20034;-79
2021/12/12 02:24:34;;;;;;;30.67;15.13;;;6.50;99.90;;;;;;5034460;28;20561;-79
2021/12/12 02:37:43;;;;;;;27.48;14.98;;;6.40;99.90;;;;;;5035563;28;20080;-78
2021/12/12 02:40:14;;;;;;;29.00;16.25;;;6.40;99.90;;;;;;5017529;28;20034;-78
2021/12/12 02:42:41;;;;;;;28.02;15.35;;;6.40;99.90;;;;;;5035825;28;20025;-79
2021/12/12 02:45:08;;;;;;;25.02;13.27;;;6.30;99.90;;;;;;5035222;28;20037;-78
2021/12/12 02:47:35;;;;;;;24.55;13.13;;;6.30;99.90;;;;;;5035480;28;20060;-79
2021/12/12 02:50:13;;;;;;;23.08;12.18;;;6.30;99.90;;;;;;5033530;28;20034;-78
2021/12/12 02:52:49;;;;;;;24.15;12.88;;;6.30;99.90;;;;;;5034646;28;20541;-79
2021/12/12 02:55:28;;;;;;;22.00;11.70;;;6.30;99.90;;;;;;5033706;28;20033;-80
2021/12/12 02:57:56;;;;;;;20.27;10.60;;;6.30;99.90;;;;;;5034972;28;20033;-80
2021/12/12 03:00:25;;;;;;;25.52;12.88;;;6.20;99.90;;;;;;5034858;28;20049;-79
2021/12/12 03:02:58;;;;;;;21.95;11.25;;;6.30;99.90;;;;;;5034948;28;20034;-79
2021/12/12 03:05:27;;;;;;;20.70;10.88;;;6.20;99.90;;;;;;5033523;28;20088;-79
2021/12/12 03:07:53;;;;;;;21.30;11.13;;;6.20;99.90;;;;;;5034493;28;20049;-79
2021/12/12 03:10:25;;;;;;;21.90;11.40;;;6.10;99.90;;;;;;5033444;28;20044;-78
2021/12/12 03:12:51;;;;;;;21.52;10.27;;;6.10;99.90;;;;;;5034772;28;20025;-78
2021/12/12 03:15:26;;;;;;;23.83;12.02;;;6.10;99.90;;;;;;5016585;28;20084;-78
2021/12/12 03:17:55;;;;;;;21.67;11.82;;;6.10;99.90;;;;;;5033467;28;20088;-79
2021/12/12 03:20:26;;;;;;;23.52;11.98;;;6.10;99.90;;;;;;5033412;28;20033;-78
2021/12/12 03:23:18;;;;;;;23.67;12.95;;;6.00;99.90;;;;;;5033881;28;20037;-78
2021/12/12 03:25:45;;;;;;;27.40;14.02;;;6.10;99.90;;;;;;5033304;28;20041;-77
2021/12/12 03:28:16;;;;;;;30.20;14.82;;;6.00;99.90;;;;;;5034348;28;20040;-78
2021/12/12 03:30:43;;;;;;;34.05;17.13;;;6.10;99.90;;;;;;5033243;28;20128;-77
2021/12/12 03:33:09;;;;;;;36.38;18.92;;;6.10;99.90;;;;;;5034265;28;20056;-79
2021/12/12 03:35:35;;;;;;;29.50;15.52;;;6.10;99.90;;;;;;5034338;28;20033;-80
2021/12/12 03:38:02;;;;;;;29.50;15.88;;;6.00;99.90;;;;;;5034112;28;20120;-78
2021/12/12 03:40:33;;;;;;;31.55;15.20;;;6.00;99.90;;;;;;5034213;28;20124;-78
2021/12/12 03:43:00;;;;;;;28.80;15.20;;;6.00;99.90;;;;;;5032968;28;20045;-78
2021/12/12 03:45:28;;;;;;;26.35;15.18;;;6.00;99.90;;;;;;5028585;28;20037;-79
2021/12/12 03:48:09;;;;;;;28.40;15.40;;;6.00;99.90;;;;;;5016329;28;20083;-78
2021/12/12 03:50:38;;;;;;;25.73;13.27;;;5.90;99.90;;;;;;5016255;28;20041;-78
2021/12/12 03:53:05;;;;;;;23.95;13.57;;;5.90;99.90;;;;;;5034609;28;20044;-78
2021/12/12 03:55:32;;;;;;;20.15;11.77;;;5.90;99.90;;;;;;5034626;28;20033;-78
2021/12/12 03:58:00;;;;;;;22.02;12.50;;;5.90;99.90;;;;;;5038557;28;20042;-77
2021/12/12 04:00:51;;;;;;;21.45;12.18;;;5.90;99.90;;;;;;5023099;28;20053;-78
2021/12/12 04:03:17;;;;;;;22.90;12.90;;;5.90;99.90;;;;;;5022188;28;20026;-79
2021/12/12 04:05:48;;;;;;;28.23;13.90;;;5.80;99.90;;;;;;5037272;28;20407;-77
2021/12/12 04:08:14;;;;;;;;;;;5.80;99.90;;;;;;5034622;28;20038;-78
2021/12/12 04:10:41;;;;;;;21.63;11.15;;;5.80;99.90;;;;;;5021854;28;20370;-78
2021/12/12 04:13:07;;;;;;;20.65;10.57;;;5.80;99.90;;;;;;5013794;28;20117;-78
2021/12/12 04:15:33;;;;;;;21.77;10.80;;;5.80;99.90;;;;;;5013955;28;20033;-78
2021/12/12 04:17:59;;;;;;;20.60;10.30;;;5.70;99.90;;;;;;5015699;28;20045;-78
2021/12/12 04:20:33;;;;;;;17.25;9.98;;;5.70;99.90;;;;;;5018187;28;20542;-77
2021/12/12 04:22:59;;;;;;;19.00;9.95;;;5.70;99.90;;;;;;5036959;28;20084;-78
2021/12/12 04:25:25;;;;;;;17.75;9.75;;;5.70;99.90;;;;;;5019984;28;20045;-80
2021/12/12 04:27:53;;;;;;;19.70;9.73;;;5.60;99.90;;;;;;5020382;28;20044;-78
2021/12/12 04:30:23;;;;;;;17.92;8.60;;;5.60;99.90;;;;;;5020305;28;20037;-79
2021/12/12 04:32:49;;;;;;;14.80;8.37;;;5.60;99.90;;;;;;5020132;28;20065;-79
2021/12/12 04:35:20;;;;;;;13.68;7.30;;;5.60;99.90;;;;;;5037692;28;20736;-79
2021/12/12 04:37:47;;;;;;;14.35;7.85;;;5.60;99.90;;;;;;5037647;28;20063;-78
2021/12/12 04:40:16;;;;;;;15.98;8.10;;;5.50;99.90;;;;;;5037310;28;20435;-78
2021/12/12 04:42:44;;;;;;;16.88;9.18;;;5.50;99.90;;;;;;5037006;28;20113;-78
2021/12/12 04:45:21;;;;;;;14.75;8.30;;;5.50;99.90;;;;;;5019451;28;20033;-78
2021/12/12 04:51:02;;;;;;;14.07;8.18;;;5.40;99.90;;;;;;5037533;28;20048;-79
2021/12/12 04:53:53;;;;;;;12.13;6.97;;;5.30;99.90;;;;;;5037238;28;20460;-77
2021/12/12 04:56:26;;;;;;;12.45;7.55;;;5.30;99.90;;;;;;5006973;28;20383;-77
2021/12/12 04:59:08;;;;;;;12.77;7.90;;;5.30;99.90;;;;;;5038183;28;20087;-78
2021/12/12 05:01:57;;;;;;;12.70;6.80;;;5.20;99.90;;;;;;5038399;28;20103;-78
2021/12/12 05:04:29;;;;;;;13.75;8.02;;;5.20;99.90;;;;;;5037523;28;20044;-79
2021/12/12 05:06:58;;;;;;;11.85;6.93;;;5.10;99.90;;;;;;5036826;28;20050;-79
2021/12/12 05:09:32;;;;;;;9.02;5.93;;;5.10;99.90;;;;;;5036831;28;20033;-78
2021/12/12 05:12:13;;;;;;;9.38;5.95;;;5.10;99.90;;;;;;5031174;28;20038;-78
2021/12/12 05:14:45;;;;;;;9.35;5.30;;;5.10;99.90;;;;;;5039159;28;20041;-78
2021/12/12 05:17:22;;;;;;;9.07;5.88;;;5.10;99.90;;;;;;5036337;28;20037;-78
2021/12/12 05:19:55;;;;;;;9.95;5.70;;;5.00;99.90;;;;;;5038784;28;20074;-77
2021/12/12 05:22:30;;;;;;;10.57;5.65;;;5.00;99.90;;;;;;5038511;28;20033;-77
2021/12/12 05:25:01;;;;;;;8.68;5.47;;;5.00;99.90;;;;;;5048628;28;20041;-76
2021/12/12 05:27:29;;;;;;;10.75;5.85;;;5.00;99.90;;;;;;5026442;28;20045;-78
2021/12/12 05:29:58;;;;;;;9.07;5.88;;;5.00;99.90;;;;;;5042380;28;20025;-79
2021/12/12 05:32:26;;;;;;;9.27;5.40;;;4.90;99.90;;;;;;5031699;28;20075;-79
2021/12/12 05:34:54;;;;;;;11.63;6.43;;;4.90;99.90;;;;;;5024570;28;20041;-79
2021/12/12 05:37:22;;;;;;;9.10;5.07;;;4.90;99.90;;;;;;5018438;28;20049;-82
2021/12/12 05:39:48;;;;;;;7.43;4.90;;;4.90;99.90;;;;;;5036260;28;20092;-82
2021/12/12 05:42:15;;;;;;;12.60;8.05;;;4.80;99.90;;;;;;5035354;28;20068;-80
2021/12/12 05:44:42;;;;;;;13.02;7.30;;;4.80;99.90;;;;;;5036026;28;20087;-80
2021/12/12 05:47:09;;;;;;;17.02;8.93;;;4.80;99.90;;;;;;5049115;28;20033;-80
2021/12/12 05:49:40;;;;;;;12.98;7.75;;;4.80;99.90;;;;;;5056089;28;20033;-77
2021/12/12 05:52:10;;;;;;;;;;;4.80;99.90;;;;;;5038885;28;20060;-78
2021/12/12 05:54:36;;;;;;;17.08;8.55;;;4.70;99.90;;;;;;5041084;28;19919;-82
2021/12/12 05:57:03;;;;;;;19.60;9.80;;;4.80;99.90;;;;;;5039959;28;20041;-81
2021/12/12 05:59:29;;;;;;;17.67;10.25;;;4.70;99.90;;;;;;5037899;28;20115;-81
2021/12/12 06:01:58;;;;;;;17.48;9.10;;;4.70;99.90;;;;;;5037945;28;20033;-85
2021/12/12 06:04:25;;;;;;;41.10;23.80;;;4.70;99.90;;;;;;5038701;28;20033;-86
2021/12/12 06:06:51;;;;;;;39.30;20.17;;;4.70;99.90;;;;;;5055579;28;20103;-77
2021/12/12 06:09:18;;;;;;;28.10;15.73;;;4.70;99.90;;;;;;5026190;28;20172;-79
2021/12/12 06:11:47;;;;;;;24.52;12.90;;;4.70;99.90;;;;;;5037448;28;20090;-78
2021/12/12 06:14:15;;;;;;;17.90;9.93;;;4.60;99.90;;;;;;5055348;28;20048;-79
2021/12/12 06:16:42;;;;;;;17.52;9.27;;;4.70;99.90;;;;;;5046903;28;20530;-78
2021/12/12 06:19:16;;;;;;;17.85;10.05;;;4.60;99.90;;;;;;5055643;28;20033;-80
2021/12/12 06:21:42;;;;;;;16.23;8.93;;;4.60;99.90;;;;;;5053700;28;20088;-81
2021/12/12 06:24:08;;;;;;;15.93;8.35;;;4.60;99.90;;;;;;5052943;28;20033;-81
2021/12/12 06:26:37;;;;;;;16.65;8.93;;;4.60;99.90;;;;;;5053171;28;20049;-80
2021/12/12 06:29:03;;;;;;;14.48;7.97;;;4.60;99.90;;;;;;5053186;28;20383;-80
2021/12/12 06:31:29;;;;;;;12.77;7.07;;;4.60;99.90;;;;;;5035110;28;20120;-79
2021/12/12 06:33:58;;;;;;;12.77;7.10;;;4.50;99.90;;;;;;5053005;28;20132;-80
2021/12/12 06:36:25;;;;;;;11.95;6.78;;;4.50;99.90;;;;;;5053937;28;20094;-79
2021/12/12 06:38:57;;;;;;;13.63;7.07;;;4.40;99.90;;;;;;5054825;28;20112;-79
2021/12/12 06:41:23;;;;;;;12.57;6.72;;;4.40;99.90;;;;;;5055314;28;20105;-79
2021/12/12 06:43:50;;;;;;;11.50;6.18;;;4.40;99.90;;;;;;5054974;28;20045;-80
2021/12/12 06:46:19;;;;;;;10.75;6.38;;;4.40;99.90;;;;;;5036970;28;20033;-79
2021/12/12 06:48:45;;;;;;;11.13;6.03;;;4.30;99.90;;;;;;5055224;28;20040;-79
2021/12/12 06:51:11;;;;;;;10.75;6.43;;;4.30;99.90;;;;;;5036955;28;20037;-79
2021/12/12 06:53:41;;;;;;;13.13;6.32;;;4.30;99.90;;;;;;5036583;28;20037;-79
2021/12/12 06:56:08;;;;;;;11.60;6.15;;;4.30;99.90;;;;;;5054856;28;20029;-79
2021/12/12 06:58:35;;;;;;;8.77;5.32;;;4.20;99.90;;;;;;5036909;28;20072;-79
2021/12/12 07:01:11;;;;;;;9.80;5.70;;;4.20;99.90;;;;;;5054260;28;20398;-81
2021/12/12 07:03:40;;;;;;;11.80;6.32;;;4.20;99.90;;;;;;5054658;28;20047;-80
2021/12/12 07:06:06;;;;;;;10.70;5.57;;;4.20;99.90;;;;;;5054213;28;20036;-80
2021/12/12 07:08:33;;;;;;;11.07;5.97;;;4.20;99.90;;;;;;5054667;28;20387;-80
2021/12/12 07:10:58;;;;;;;10.02;5.60;;;4.10;99.90;;;;;;5054645;28;20033;-79
2021/12/12 07:13:24;;;;;;;8.70;4.72;;;4.10;99.90;;;;;;5054666;28;20032;-79
2021/12/12 07:15:54;;;;;;;9.15;4.97;;;4.10;99.90;;;;;;5054606;28;20403;-79
2021/12/12 07:18:24;;;;;;;11.50;6.28;;;4.10;99.90;;;;;;5036310;28;20057;-80
2021/12/12 07:20:52;;;;;;;9.25;4.80;;;4.10;99.90;;;;;;5036409;28;20041;-79
2021/12/12 07:23:19;;;;;;;8.93;5.28;;;4.10;99.90;;;;;;5036517;28;20033;-79
2021/12/12 07:25:46;;;;;;;14.98;6.45;;;4.10;99.90;;;;;;5053955;28;20103;-79
2021/12/12 07:28:13;;;;;;;14.40;6.75;;;4.10;99.90;;;;;;5054186;28;20036;-79
2021/12/12 07:30:39;;;;;;;18.95;8.38;;;4.00;99.90;;;;;;5036906;28;20396;-79
2021/12/12 07:33:06;;;;;;;14.00;6.88;;;4.00;99.90;;;;;;5036172;28;20037;-79
2021/12/12 07:35:38;;;;;;;12.07;6.75;;;4.00;99.90;;;;;;5036123;28;20068;-80
2021/12/12 07:38:10;;;;;;;16.95;8.57;;;4.00;99.90;;;;;;5053777;28;20047;-80
2021/12/12 07:40:37;;;;;;;20.60;9.50;;;4.00;99.90;;;;;;5053757;28;20087;-77
2021/12/12 07:43:05;;;;;;;19.50;9.60;;;4.00;99.90;;;;;;5036285;28;20111;-77
2021/12/12 07:45:31;;;;;;;25.70;10.95;;;4.00;99.90;;;;;;5053674;28;20029;-78
2021/12/12 07:47:57;;;;;;;20.38;10.20;;;4.00;99.90;;;;;;5036708;28;20047;-79
2021/12/12 07:50:27;;;;;;;21.05;10.98;;;4.10;99.90;;;;;;5035687;28;20037;-78
2021/12/12 07:52:52;;;;;;;32.72;14.65;;;4.10;99.90;;;;;;5044207;28;20040;-78
2021/12/12 07:55:19;;;;;;;30.38;13.65;;;4.20;99.90;;;;;;5048364;28;20033;-85
2021/12/12 07:57:45;;;;;;;42.35;19.58;;;4.20;99.90;;;;;;5033521;28;20121;-85
2021/12/12 08:00:16;;;;;;;33.13;15.77;;;4.20;99.90;;;;;;5054059;28;20120;-82
2021/12/12 08:02:42;;;;;;;32.67;15.00;;;4.20;99.90;;;;;;5028132;28;20472;-78
2021/12/12 08:05:11;;;;;;;35.58;16.58;;;4.20;99.90;;;;;;5033898;28;20153;-83
2021/12/12 08:07:40;;;;;;;33.42;16.05;;;4.30;99.90;;;;;;5033845;28;20125;-80
2021/12/12 08:10:09;;;;;;;33.13;16.98;;;4.30;99.90;;;;;;5033981;28;20029;-80
2021/12/12 08:12:35;;;;;;;36.90;18.15;;;4.30;99.90;;;;;;5033743;28;20029;-86
2021/12/12 08:15:06;;;;;;;39.33;17.48;;;4.20;99.90;;;;;;5034056;28;20053;-81
2021/12/12 08:17:33;;;;;;;43.33;18.77;;;4.20;99.90;;;;;;4999737;28;20037;-82
2021/12/12 08:19:59;;;;;;;37.60;16.05;;;4.20;99.90;;;;;;5015974;28;20030;-80
2021/12/12 08:22:27;;;;;;;54.97;28.67;;;4.20;99.90;;;;;;5016417;28;20034;-78
2021/12/12 08:24:57;;;;;;;34.92;16.98;;;4.20;99.90;;;;;;5033581;28;20049;-79
2021/12/12 08:27:23;;;;;;;36.63;16.95;;;4.30;99.90;;;;;;5015866;28;20072;-79
2021/12/12 08:29:50;;;;;;;31.25;14.35;;;4.30;99.90;;;;;;5033442;28;20115;-81
2021/12/12 08:32:17;;;;;;;40.28;15.50;;;4.20;99.90;;;;;;5018072;28;20037;-82
2021/12/12 08:34:43;;;;;;;28.02;13.55;;;4.20;99.90;;;;;;5033571;28;20037;-78
2021/12/12 08:37:09;;;;;;;27.50;13.65;;;4.20;99.90;;;;;;5016253;28;20488;-78
2021/12/12 08:39:36;;;;;;;27.15;13.75;;;4.20;99.90;;;;;;5015038;28;20045;-79
2021/12/12 08:42:03;;;;;;;23.27;11.65;;;4.20;99.90;;;;;;5033071;28;20029;-77
2021/12/12 08:44:30;;;;;;;31.33;15.63;;;4.20;99.90;;;;;;5030781;28;20038;-80
2021/12/12 08:46:58;;;;;;;27.02;13.20;;;4.10;99.90;;;;;;5032259;28;20041;-82
2021/12/12 08:49:27;;;;;;;27.10;13.75;;;4.10;99.90;;;;;;5034225;28;20029;-83
2021/12/12 08:52:01;;;;;;;31.27;16.45;;;4.00;99.90;;;;;;5035317;28;20045;-84
2021/12/12 08:54:29;;;;;;;46.20;14.02;;;4.00;99.90;;;;;;5032944;28;20034;-84
2021/12/12 08:57:08;;;;;;;20.98;10.70;;;4.00;99.90;;;;;;5014237;28;20036;-82
2021/12/12 08:59:40;;;;;;;17.75;10.20;;;4.00;99.90;;;;;;5032402;28;20160;-79
2021/12/12 09:02:11;;;;;;;16.38;8.80;;;4.00;99.90;;;;;;5014436;28;20033;-82
2021/12/12 09:05:02;;;;;;;19.83;11.05;;;4.00;99.90;;;;;;5015495;28;20044;-83
2021/12/12 09:07:36;;;;;;;22.00;11.75;;;4.00;99.90;;;;;;5016032;28;20041;-82
2021/12/12 09:10:06;;;;;;;28.10;10.98;;;3.90;99.90;;;;;;5039166;28;20475;-86
2021/12/12 09:12:56;;;;;;;29.30;11.40;;;3.90;99.90;;;;;;5043043;28;20045;-83
2021/12/12 09:15:28;;;;;;;32.30;11.13;;;3.90;99.90;;;;;;5036715;28;20033;-83
2021/12/12 09:18:01;;;;;;;22.30;10.15;;;3.80;99.90;;;;;;5036549;28;20054;-84
2021/12/12 09:20:55;;;;;;;33.67;10.63;;;3.90;99.90;;;;;;5017806;28;20550;-86
2021/12/12 09:23:25;;;;;;;20.55;11.13;;;3.80;99.90;;;;;;5028463;28;20033;-87
2021/12/12 09:26:00;;;;;;;17.00;9.32;;;3.80;99.90;;;;;;5017288;28;20552;-87
2021/12/12 09:28:31;;;;;;;21.17;10.35;;;3.80;99.90;;;;;;5035506;28;20041;-84
2021/12/12 09:31:03;;;;;;;24.33;10.70;;;3.80;99.90;;;;;;5017273;28;20456;-83
2021/12/12 09:33:55;;;;;;;26.35;12.95;;;3.80;99.90;;;;;;5016788;28;20069;-89
2021/12/12 09:36:33;;;;;;;24.42;10.70;;;3.70;99.90;;;;;;4982017;28;20029;-86
2021/12/12 09:39:12;;;;;;;19.15;10.32;;;3.80;99.90;;;;;;5034872;28;20479;-85
2021/12/12 09:42:18;;;;;;;21.50;10.38;;;3.90;99.90;;;;;;5016642;28;20034;-89
2021/12/12 09:45:06;;;;;;;19.00;9.88;;;3.90;99.90;;;;;;5016489;28;20030;-85
2021/12/12 09:47:57;;;;;;;19.75;9.93;;;3.80;99.90;;;;;;5033666;28;20450;-86
2021/12/12 09:54:09;;;;;;;20.15;11.48;;;3.80;99.90;;;;;;5033070;28;20068;-88
2021/12/12 09:57:06;;;;;;;25.40;12.13;;;3.80;99.90;;;;;;5032487;28;20105;-86
2021/12/12 09:59:46;;;;;;;15.68;9.00;;;3.70;99.90;;;;;;5032775;28;20119;-88
2021/12/12 10:02:20;;;;;;;18.33;10.57;;;3.70;99.90;;;;;;5015246;28;20033;-88
2021/12/12 10:04:57;;;;;;;22.15;10.70;;;3.60;99.90;;;;;;5016144;28;20101;-88
2021/12/12 10:07:41;;;;;;;16.17;9.70;;;3.60;99.90;;;;;;5017973;28;20068;-86
2021/12/12 10:10:29;;;;;;;23.25;11.50;;;3.60;99.90;;;;;;5028127;28;20041;-88
2021/12/12 10:13:17;;;;;;;17.20;9.65;;;3.50;99.90;;;;;;5052512;28;20035;-86
2021/12/12 10:15:49;;;;;;;19.95;10.73;;;3.50;99.90;;;;;;5058401;28;20147;-85
2021/12/12 10:18:38;;;;;;;26.02;13.55;;;3.40;99.90;;;;;;5060789;28;20425;-86
2021/12/12 10:21:59;;;;;;;23.88;13.25;;;3.40;99.90;;;;;;5061452;28;20037;-85
2021/12/12 10:24:29;;;;;;;34.67;18.05;;;3.30;99.90;;;;;;4998086;28;20130;-85
2021/12/12 10:27:09;;;;;;;25.50;13.73;;;3.30;99.90;;;;;;5063321;28;20037;-88
2021/12/12 10:29:53;;;;;;;24.20;13.13;;;3.30;99.90;;;;;;5034711;28;20044;-85
2021/12/12 10:32:28;;;;;;;21.45;12.52;;;3.30;99.90;;;;;;5033369;28;20037;-85
2021/12/12 10:35:04;;;;;;;23.60;11.95;;;3.30;99.90;;;;;;5036787;28;20106;-86
2021/12/12 10:37:58;;;;;;;21.23;11.77;;;3.30;99.90;;;;;;5036857;28;20037;-85
2021/12/12 10:40:37;;;;;;;22.27;11.32;;;3.30;99.90;;;;;;5053684;28;20041;-80
2021/12/12 10:43:08;;;;;;;29.13;14.63;;;3.30;99.90;;;;;;5052214;28;20021;-84
2021/12/12 10:45:43;;;;;;;25.08;12.35;;;3.30;99.90;;;;;;5034910;28;20036;-82
2021/12/12 10:48:16;;;;;;;25.38;12.57;;;3.30;99.90;;;;;;5052678;28;20107;-87
2021/12/12 10:51:00;;;;;;;25.75;12.70;;;3.30;99.90;;;;;;5037047;28;20116;-87
2021/12/12 10:53:34;;;;;;;28.00;13.73;;;3.30;99.90;;;;;;5053286;28;20041;-86
2021/12/12 10:56:18;;;;;;;32.25;14.18;;;3.30;99.90;;;;;;5035668;28;20033;-84
2021/12/12 10:58:50;;;;;;;25.95;14.70;;;3.20;99.90;;;;;;5035643;28;20407;-86
2021/12/12 11:01:32;;;;;;;30.63;15.80;;;3.20;99.90;;;;;;5023703;28;20076;-89
2021/12/12 11:04:10;;;;;;;30.25;14.55;;;3.20;99.90;;;;;;5023310;28;20045;-91
2021/12/12 11:06:39;;;;;;;27.08;13.70;;;3.10;99.90;;;;;;5017979;28;20033;-91
2021/12/12 11:09:14;;;;;;;29.70;13.60;;;3.10;99.90;;;;;;5016359;28;20495;-87
2021/12/12 11:11:44;;;;;;;23.88;12.75;;;3.10;99.90;;;;;;5033930;28;20091;-85
2021/12/12 11:14:24;;;;;;;26.33;13.25;;;3.10;99.90;;;;;;5018701;28;20362;-84
2021/12/12 11:16:56;;;;;;;29.10;13.40;;;3.10;99.90;;;;;;5017170;28;20109;-86
2021/12/12 11:19:51;;;;;;;25.98;13.00;;;3.00;99.90;;;;;;5016731;28;20076;-88
2021/12/12 11:22:22;;;;;;;26.95;13.25;;;3.00;99.90;;;;;;5034668;28;20363;-87
2021/12/12 11:24:58;;;;;;;25.10;12.60;;;3.00;99.90;;;;;;5034418;28;20037;-87
2021/12/12 11:27:46;;;;;;;28.70;13.95;;;3.00;99.90;;;;;;5033775;28;20472;-89
2021/12/12 11:30:21;;;;;;;25.88;12.77;;;2.90;99.90;;;;;;5017847;28;20029;-91
2021/12/12 11:32:49;;;;;;;25.67;13.02;;;2.90;99.90;;;;;;5016866;28;20387;-92
2021/12/12 11:35:21;;;;;;;32.17;14.65;;;2.80;99.90;;;;;;5019127;28;20443;-93
2021/12/12 11:38:05;;;;;;;109.53;53.30;;;2.80;99.90;;;;;;5002098;28;20048;-89
2021/12/12 11:40:38;;;;;;;57.47;27.42;;;2.80;99.90;;;;;;5026893;28;20034;-93
2021/12/12 11:43:10;;;;;;;39.80;18.67;;;2.80;99.90;;;;;;5041565;28;20037;-92
2021/12/12 11:45:52;;;;;;;37.58;17.83;;;2.80;99.90;;;;;;5023456;28;20087;-94
2021/12/12 11:48:28;;;;;;;37.15;17.08;;;2.80;99.90;;;;;;5027666;28;20048;-90
2021/12/12 11:50:57;;;;;;;31.00;15.68;;;2.70;99.90;;;;;;5025306;28;20044;-86
2021/12/12 11:53:34;;;;;;;39.22;17.75;;;2.70;99.90;;;;;;5032523;28;20030;-90
2021/12/12 11:56:52;;;;;;;32.60;15.00;;;2.80;99.90;;;;;;5015078;28;20034;-92
2021/12/12 11:59:41;;;;;;;40.60;17.95;;;2.70;99.90;;;;;;4989364;28;20046;-86
2021/12/12 12:02:45;;;;;;;33.63;16.40;;;2.70;99.90;;;;;;5017805;28;20041;-94
2021/12/12 12:05:25;;;;;;;29.92;15.13;;;2.70;99.90;;;;;;4954074;29;20043;-90
2021/12/12 12:08:12;;;;;;;34.95;17.60;;;2.70;99.90;;;;;;4938546;29;20130;-93
2021/12/12 12:11:06;;;;;;;41.50;18.23;;;2.70;99.90;;;;;;5018393;28;20037;-85
2021/12/12 12:13:54;;;;;;;51.75;23.35;;;2.80;99.90;;;;;;5053668;28;20079;-89
2021/12/12 12:16:35;;;;;;;47.85;21.77;;;2.80;99.90;;;;;;5035667;28;20033;-91
2021/12/12 12:19:04;;;;;;;47.13;20.33;;;2.80;99.90;;;;;;5035634;28;20041;-85
2021/12/12 12:21:39;;;;;;;43.65;19.63;;;2.70;99.90;;;;;;5051826;28;20043;-87
2021/12/12 12:24:20;;;;;;;46.25;19.50;;;2.80;99.90;;;;;;5035967;28;20037;-88
2021/12/12 12:27:03;;;;;;;44.92;20.58;;;2.70;99.90;;;;;;5036263;28;20079;-84
2021/12/12 12:29:32;;;;;;;42.85;18.75;;;2.70;99.90;;;;;;5055547;28;20041;-86
2021/12/12 12:32:04;;;;;;;39.72;18.67;;;2.70;99.90;;;;;;5043972;28;20048;-87
2021/12/12 12:35:07;;;;;;;38.88;18.77;;;2.70;99.90;;;;;;5057674;28;20029;-84
2021/12/12 12:38:10;;;;;;;49.17;21.27;;;2.70;99.90;;;;;;5053224;28;20518;-86
2021/12/12 12:41:14;;;;;;;43.65;19.70;;;2.60;99.90;;;;;;5019764;28;20053;-86
2021/12/12 12:44:08;;;;;;;38.28;18.48;;;2.60;99.90;;;;;;5037546;28;20048;-89
2021/12/12 12:46:52;;;;;;;43.72;18.33;;;2.60;99.90;;;;;;5019676;28;20503;-92
2021/12/12 12:49:43;;;;;;;46.08;21.20;;;2.60;99.90;;;;;;5022103;28;20036;-90
2021/12/12 12:52:21;;;;;;;47.58;21.02;;;2.60;99.90;;;;;;5039614;28;20061;-92
2021/12/12 12:55:23;;;;;;;51.58;22.98;;;2.50;99.90;;;;;;5038211;28;20034;-86
2021/12/12 12:57:54;;;;;;;46.70;20.88;;;2.50;99.90;;;;;;5037450;28;20121;-84
2021/12/12 13:00:28;;;;;;;38.35;17.33;;;2.50;99.90;;;;;;5044389;28;20045;-85
2021/12/12 13:03:03;;;;;;;41.75;20.90;;;2.50;99.90;;;;;;5039249;28;20056;-84
2021/12/12 13:05:57;;;;;;;42.28;19.58;;;2.60;99.90;;;;;;5040007;28;20151;-87
2021/12/12 13:08:52;;;;;;;43.10;19.50;;;2.60;99.90;;;;;;5069343;28;20099;-86
2021/12/12 13:11:32;;;;;;;39.78;18.85;;;2.70;99.90;;;;;;5054891;28;20037;-84
2021/12/12 13:14:13;;;;;;;40.53;17.48;;;2.70;99.90;;;;;;5061102;28;20041;-87
2021/12/12 13:16:54;;;;;;;47.40;21.02;;;2.70;99.90;;;;;;5056374;28;20390;-89
2021/12/12 13:19:38;;;;;;;51.55;21.65;;;2.70;99.90;;;;;;5041443;28;20079;-90
2021/12/12 13:22:27;;;;;;;47.13;20.17;;;2.70;99.90;;;;;;5047559;28;20309;-89
2021/12/12 13:25:17;;;;;;;48.17;20.73;;;2.60;99.90;;;;;;5046747;28;20052;-92
2021/12/12 13:31:36;;;;;;;43.00;18.70;;;2.60;99.90;;;;;;5046482;28;20036;-92
2021/12/12 13:34:39;;;;;;;44.85;21.00;;;2.50;99.90;;;;;;5042262;28;20033;-92
2021/12/12 13:37:18;;;;;;;41.30;19.02;;;2.50;99.90;;;;;;5039951;28;20029;-89